sensor_id;sensor_type;location;lat;lon;timestamp;pressure;altitude;pressure_sealevel;temperature;humidity
77975;BME280;67164;51.202;0.278;2023-08-07T00:00:51;101658.05;;;23.83;43.39
77975;BME280;67164;51.202;0.278;2023-08-07T00:03:17;101660.48;;;23.85;43.35
77975;BME280;67164;51.202;0.278;2023-08-07T00:05:44;101658.19;;;23.79;43.34
77975;BME280;67164;51.202;0.278;2023-08-07T00:08:08;101658.88;;;24.01;43.19
77975;BME280;67164;51.202;0.278;2023-08-07T00:10:34;101659.62;;;23.78;43.20
77975;BME280;67164;51.202;0.278;2023-08-07T00:13:00;101661.40;;;23.76;43.20
77975;BME280;67164;51.202;0.278;2023-08-07T00:15:26;101658.84;;;23.71;43.30
77975;BME280;67164;51.202;0.278;2023-08-07T00:17:51;101656.04;;;23.74;43.18
77975;BME280;67164;51.202;0.278;2023-08-07T00:20:17;101658.67;;;23.77;43.13
77975;BME280;67164;51.202;0.278;2023-08-07T00:22:43;101660.84;;;23.75;43.15
77975;BME280;67164;51.202;0.278;2023-08-07T00:25:09;101662.18;;;23.74;43.12
77975;BME280;67164;51.202;0.278;2023-08-07T00:27:34;101661.47;;;23.68;43.12
77975;BME280;67164;51.202;0.278;2023-08-07T00:30:00;101661.16;;;24.14;43.13
77975;BME280;67164;51.202;0.278;2023-08-07T00:32:26;101662.36;;;23.88;43.13
77975;BME280;67164;51.202;0.278;2023-08-07T00:34:52;101665.30;;;23.88;43.10
77975;BME280;67164;51.202;0.278;2023-08-07T00:37:18;101666.19;;;23.66;43.11
77975;BME280;67164;51.202;0.278;2023-08-07T00:39:43;101666.56;;;23.58;43.16
77975;BME280;67164;51.202;0.278;2023-08-07T00:42:09;101662.82;;;23.59;43.00
77975;BME280;67164;51.202;0.278;2023-08-07T00:44:35;101660.93;;;24.07;42.95
77975;BME280;67164;51.202;0.278;2023-08-07T00:47:01;101658.45;;;23.58;42.94
77975;BME280;67164;51.202;0.278;2023-08-07T00:49:27;101653.79;;;23.57;42.82
77975;BME280;67164;51.202;0.278;2023-08-07T00:51:53;101653.20;;;23.79;42.92
77975;BME280;67164;51.202;0.278;2023-08-07T00:54:19;101650.28;;;23.49;43.03
77975;BME280;67164;51.202;0.278;2023-08-07T00:56:44;101648.68;;;23.50;43.06
77975;BME280;67164;51.202;0.278;2023-08-07T00:59:10;101650.20;;;23.68;43.19
77975;BME280;67164;51.202;0.278;2023-08-07T01:01:36;101650.70;;;23.67;43.25
77975;BME280;67164;51.202;0.278;2023-08-07T01:04:01;101647.23;;;23.39;43.27
77975;BME280;67164;51.202;0.278;2023-08-07T01:06:27;101645.19;;;23.38;43.31
77975;BME280;67164;51.202;0.278;2023-08-07T01:08:53;101645.03;;;23.40;43.20
77975;BME280;67164;51.202;0.278;2023-08-07T01:11:24;101646.58;;;23.41;43.20
77975;BME280;67164;51.202;0.278;2023-08-07T01:13:51;101649.18;;;23.63;43.16
77975;BME280;67164;51.202;0.278;2023-08-07T01:16:18;101646.87;;;23.41;43.13
77975;BME280;67164;51.202;0.278;2023-08-07T01:18:36;101649.29;;;23.37;43.14
77975;BME280;67164;51.202;0.278;2023-08-07T01:21:03;101646.33;;;23.59;43.18
77975;BME280;67164;51.202;0.278;2023-08-07T01:23:28;101644.34;;;23.62;43.17
77975;BME280;67164;51.202;0.278;2023-08-07T01:25:53;101643.40;;;23.87;43.10
77975;BME280;67164;51.202;0.278;2023-08-07T01:28:25;101646.87;;;23.60;43.15
77975;BME280;67164;51.202;0.278;2023-08-07T01:30:48;101649.22;;;23.55;43.21
77975;BME280;67164;51.202;0.278;2023-08-07T01:33:14;101651.83;;;23.34;43.11
77975;BME280;67164;51.202;0.278;2023-08-07T01:35:43;101649.20;;;23.34;43.09
77975;BME280;67164;51.202;0.278;2023-08-07T01:38:03;101647.74;;;23.25;43.16
77975;BME280;67164;51.202;0.278;2023-08-07T01:40:28;101644.29;;;23.27;43.16
77975;BME280;67164;51.202;0.278;2023-08-07T01:42:54;101644.21;;;23.49;43.21
77975;BME280;67164;51.202;0.278;2023-08-07T01:45:24;101641.77;;;23.18;43.43
77975;BME280;67164;51.202;0.278;2023-08-07T01:47:45;101645.25;;;23.15;43.37
77975;BME280;67164;51.202;0.278;2023-08-07T01:50:11;101651.26;;;23.16;43.45
77975;BME280;67164;51.202;0.278;2023-08-07T01:52:37;101652.12;;;23.17;43.33
77975;BME280;67164;51.202;0.278;2023-08-07T01:55:03;101649.41;;;23.41;43.28
77975;BME280;67164;51.202;0.278;2023-08-07T01:57:28;101646.63;;;23.62;43.23
77975;BME280;67164;51.202;0.278;2023-08-07T01:59:54;101645.20;;;23.39;43.24
77975;BME280;67164;51.202;0.278;2023-08-07T02:02:20;101646.79;;;23.30;43.15
77975;BME280;67164;51.202;0.278;2023-08-07T02:04:46;101649.12;;;23.17;43.14
77975;BME280;67164;51.202;0.278;2023-08-07T02:07:11;101648.47;;;23.58;43.29
77975;BME280;67164;51.202;0.278;2023-08-07T02:09:37;101646.00;;;23.57;43.11
77975;BME280;67164;51.202;0.278;2023-08-07T02:12:04;101642.75;;;23.32;43.04
77975;BME280;67164;51.202;0.278;2023-08-07T02:14:29;101641.05;;;23.60;43.01
77975;BME280;67164;51.202;0.278;2023-08-07T02:16:54;101643.64;;;23.38;42.89
77975;BME280;67164;51.202;0.278;2023-08-07T02:19:20;101643.92;;;23.09;42.89
77975;BME280;67164;51.202;0.278;2023-08-07T02:21:46;101648.70;;;23.36;42.98
77975;BME280;67164;51.202;0.278;2023-08-07T02:24:12;101651.19;;;23.57;42.99
77975;BME280;67164;51.202;0.278;2023-08-07T02:26:38;101650.80;;;23.25;43.00
77975;BME280;67164;51.202;0.278;2023-08-07T02:29:03;101652.33;;;23.02;43.13
77975;BME280;67164;51.202;0.278;2023-08-07T02:31:29;101653.01;;;22.98;42.95
77975;BME280;67164;51.202;0.278;2023-08-07T02:33:55;101655.56;;;23.43;43.18
77975;BME280;67164;51.202;0.278;2023-08-07T02:36:21;101655.74;;;23.47;43.01
77975;BME280;67164;51.202;0.278;2023-08-07T02:38:46;101657.05;;;23.22;43.20
77975;BME280;67164;51.202;0.278;2023-08-07T02:41:12;101655.81;;;23.40;43.20
77975;BME280;67164;51.202;0.278;2023-08-07T02:43:38;101659.29;;;23.20;43.15
77975;BME280;67164;51.202;0.278;2023-08-07T02:46:04;101661.37;;;22.93;43.21
77975;BME280;67164;51.202;0.278;2023-08-07T02:48:29;101666.07;;;23.36;43.19
77975;BME280;67164;51.202;0.278;2023-08-07T02:50:55;101667.57;;;22.81;43.39
77975;BME280;67164;51.202;0.278;2023-08-07T02:53:21;101668.04;;;23.13;43.10
77975;BME280;67164;51.202;0.278;2023-08-07T02:55:47;101664.06;;;23.11;43.23
77975;BME280;67164;51.202;0.278;2023-08-07T02:58:13;101666.49;;;23.11;43.22
77975;BME280;67164;51.202;0.278;2023-08-07T03:00:38;101671.54;;;23.30;43.34
77975;BME280;67164;51.202;0.278;2023-08-07T03:03:04;101669.90;;;23.05;43.31
77975;BME280;67164;51.202;0.278;2023-08-07T03:05:30;101669.42;;;23.30;43.27
77975;BME280;67164;51.202;0.278;2023-08-07T03:07:56;101668.23;;;22.84;43.27
77975;BME280;67164;51.202;0.278;2023-08-07T03:10:21;101662.26;;;23.02;43.28
77975;BME280;67164;51.202;0.278;2023-08-07T03:12:47;101664.75;;;23.32;43.13
77975;BME280;67164;51.202;0.278;2023-08-07T03:15:13;101665.77;;;22.79;43.28
77975;BME280;67164;51.202;0.278;2023-08-07T03:17:39;101661.95;;;23.39;43.14
77975;BME280;67164;51.202;0.278;2023-08-07T03:20:05;101662.90;;;23.09;43.08
77975;BME280;67164;51.202;0.278;2023-08-07T03:22:30;101662.90;;;23.02;43.19
77975;BME280;67164;51.202;0.278;2023-08-07T03:24:56;101661.64;;;23.33;42.98
77975;BME280;67164;51.202;0.278;2023-08-07T03:27:22;101661.60;;;23.23;43.14
77975;BME280;67164;51.202;0.278;2023-08-07T03:29:48;101658.11;;;23.29;43.15
77975;BME280;67164;51.202;0.278;2023-08-07T03:32:15;101660.19;;;23.20;43.26
77975;BME280;67164;51.202;0.278;2023-08-07T03:34:39;101660.40;;;23.01;43.14
77975;BME280;67164;51.202;0.278;2023-08-07T03:37:05;101662.99;;;23.21;43.16
77975;BME280;67164;51.202;0.278;2023-08-07T03:39:31;101661.00;;;23.04;43.18
77975;BME280;67164;51.202;0.278;2023-08-07T03:41:57;101660.92;;;22.95;43.22
77975;BME280;67164;51.202;0.278;2023-08-07T03:44:22;101659.85;;;23.37;43.13
77975;BME280;67164;51.202;0.278;2023-08-07T03:46:48;101663.64;;;23.28;43.08
77975;BME280;67164;51.202;0.278;2023-08-07T03:49:14;101664.38;;;23.15;43.24
77975;BME280;67164;51.202;0.278;2023-08-07T03:51:40;101663.64;;;23.40;43.34
77975;BME280;67164;51.202;0.278;2023-08-07T03:54:06;101667.66;;;23.14;43.47
77975;BME280;67164;51.202;0.278;2023-08-07T03:56:32;101666.13;;;22.91;43.64
77975;BME280;67164;51.202;0.278;2023-08-07T03:58:57;101667.43;;;23.19;43.57
77975;BME280;67164;51.202;0.278;2023-08-07T04:01:23;101665.42;;;23.42;43.49
77975;BME280;67164;51.202;0.278;2023-08-07T04:03:49;101668.81;;;23.19;43.44
77975;BME280;67164;51.202;0.278;2023-08-07T04:06:14;101673.30;;;23.15;43.71
77975;BME280;67164;51.202;0.278;2023-08-07T04:08:40;101675.44;;;23.22;43.38
77975;BME280;67164;51.202;0.278;2023-08-07T04:11:06;101675.60;;;23.05;43.67
77975;BME280;67164;51.202;0.278;2023-08-07T04:13:32;101674.79;;;23.41;43.67
77975;BME280;67164;51.202;0.278;2023-08-07T04:15:58;101676.59;;;23.22;43.80
77975;BME280;67164;51.202;0.278;2023-08-07T04:18:24;101675.40;;;23.00;43.66
77975;BME280;67164;51.202;0.278;2023-08-07T04:20:50;101674.78;;;23.23;43.67
77975;BME280;67164;51.202;0.278;2023-08-07T04:23:15;101675.97;;;23.50;43.58
77975;BME280;67164;51.202;0.278;2023-08-07T04:25:41;101676.49;;;23.19;43.73
77975;BME280;67164;51.202;0.278;2023-08-07T04:28:06;101681.78;;;23.48;43.51
77975;BME280;67164;51.202;0.278;2023-08-07T04:30:33;101686.16;;;22.88;43.72
77975;BME280;67164;51.202;0.278;2023-08-07T04:32:58;101684.22;;;23.19;43.58
77975;BME280;67164;51.202;0.278;2023-08-07T04:35:24;101683.90;;;23.41;43.76
77975;BME280;67164;51.202;0.278;2023-08-07T04:37:50;101685.76;;;22.84;43.83
77975;BME280;67164;51.202;0.278;2023-08-07T04:40:15;101682.33;;;22.84;43.73
77975;BME280;67164;51.202;0.278;2023-08-07T04:42:41;101682.58;;;23.07;43.81
77975;BME280;67164;51.202;0.278;2023-08-07T04:45:08;101682.76;;;23.03;43.73
77975;BME280;67164;51.202;0.278;2023-08-07T04:47:33;101682.26;;;23.09;43.84
77975;BME280;67164;51.202;0.278;2023-08-07T04:49:58;101685.26;;;22.82;43.79
77975;BME280;67164;51.202;0.278;2023-08-07T04:52:24;101686.83;;;22.96;43.94
77975;BME280;67164;51.202;0.278;2023-08-07T04:54:50;101685.88;;;23.27;43.59
77975;BME280;67164;51.202;0.278;2023-08-07T04:57:16;101686.50;;;23.30;43.60
77975;BME280;67164;51.202;0.278;2023-08-07T04:59:42;101689.80;;;23.03;43.46
77975;BME280;67164;51.202;0.278;2023-08-07T05:02:07;101690.09;;;23.28;43.36
77975;BME280;67164;51.202;0.278;2023-08-07T05:04:33;101692.60;;;22.82;43.39
77975;BME280;67164;51.202;0.278;2023-08-07T05:06:59;101693.94;;;23.29;43.42
77975;BME280;67164;51.202;0.278;2023-08-07T05:09:25;101693.14;;;23.31;43.31
77975;BME280;67164;51.202;0.278;2023-08-07T05:11:50;101695.15;;;22.81;43.31
77975;BME280;67164;51.202;0.278;2023-08-07T05:14:16;101696.43;;;23.25;43.26
77975;BME280;67164;51.202;0.278;2023-08-07T05:16:42;101694.43;;;23.03;43.27
77975;BME280;67164;51.202;0.278;2023-08-07T05:19:08;101700.78;;;22.79;43.27
77975;BME280;67164;51.202;0.278;2023-08-07T05:21:34;101705.48;;;22.78;43.25
77975;BME280;67164;51.202;0.278;2023-08-07T05:23:59;101706.73;;;23.26;43.28
77975;BME280;67164;51.202;0.278;2023-08-07T05:26:24;101702.59;;;22.87;43.20
77975;BME280;67164;51.202;0.278;2023-08-07T05:28:50;101707.08;;;23.29;43.26
77975;BME280;67164;51.202;0.278;2023-08-07T05:31:15;101705.71;;;22.84;43.18
77975;BME280;67164;51.202;0.278;2023-08-07T05:33:41;101711.54;;;23.01;43.25
77975;BME280;67164;51.202;0.278;2023-08-07T05:36:07;101715.40;;;22.97;43.43
77975;BME280;67164;51.202;0.278;2023-08-07T05:38:33;101715.67;;;22.73;43.52
77975;BME280;67164;51.202;0.278;2023-08-07T05:40:59;101715.62;;;23.23;43.44
77975;BME280;67164;51.202;0.278;2023-08-07T05:43:24;101710.33;;;23.11;43.72
77975;BME280;67164;51.202;0.278;2023-08-07T05:45:50;101705.63;;;22.86;43.68
77975;BME280;67164;51.202;0.278;2023-08-07T05:48:16;101706.60;;;22.86;43.73
77975;BME280;67164;51.202;0.278;2023-08-07T05:50:42;101703.12;;;22.94;43.55
77975;BME280;67164;51.202;0.278;2023-08-07T05:53:08;101702.45;;;23.03;43.83
77975;BME280;67164;51.202;0.278;2023-08-07T05:55:33;101699.39;;;22.73;43.81
77975;BME280;67164;51.202;0.278;2023-08-07T05:57:59;101698.59;;;22.85;43.71
77975;BME280;67164;51.202;0.278;2023-08-07T06:00:25;101700.02;;;22.79;43.77
77975;BME280;67164;51.202;0.278;2023-08-07T06:02:51;101699.55;;;22.81;43.92
77975;BME280;67164;51.202;0.278;2023-08-07T06:05:17;101694.32;;;22.98;43.95
77975;BME280;67164;51.202;0.278;2023-08-07T06:07:42;101696.02;;;22.79;43.85
77975;BME280;67164;51.202;0.278;2023-08-07T06:10:08;101699.38;;;23.01;43.91
77975;BME280;67164;51.202;0.278;2023-08-07T06:12:34;101703.98;;;23.13;43.73
77975;BME280;67164;51.202;0.278;2023-08-07T06:15:00;101709.15;;;22.77;44.04
77975;BME280;67164;51.202;0.278;2023-08-07T06:17:27;101713.11;;;23.05;43.85
77975;BME280;67164;51.202;0.278;2023-08-07T06:19:52;101716.58;;;22.93;43.77
77975;BME280;67164;51.202;0.278;2023-08-07T06:22:17;101713.21;;;23.20;43.90
77975;BME280;67164;51.202;0.278;2023-08-07T06:24:43;101716.33;;;23.22;43.86
77975;BME280;67164;51.202;0.278;2023-08-07T06:27:09;101720.00;;;23.22;43.93
77975;BME280;67164;51.202;0.278;2023-08-07T06:29:35;101722.50;;;23.20;44.17
77975;BME280;67164;51.202;0.278;2023-08-07T06:32:00;101722.40;;;23.24;44.07
77975;BME280;67164;51.202;0.278;2023-08-07T06:34:26;101719.33;;;23.29;44.09
77975;BME280;67164;51.202;0.278;2023-08-07T06:36:52;101718.02;;;23.24;44.18
77975;BME280;67164;51.202;0.278;2023-08-07T06:39:18;101717.93;;;23.03;44.09
77975;BME280;67164;51.202;0.278;2023-08-07T06:41:44;101719.53;;;23.22;44.22
77975;BME280;67164;51.202;0.278;2023-08-07T06:44:09;101716.65;;;23.10;44.14
77975;BME280;67164;51.202;0.278;2023-08-07T06:46:35;101713.86;;;23.29;44.06
77975;BME280;67164;51.202;0.278;2023-08-07T06:49:01;101716.43;;;23.33;44.08
77975;BME280;67164;51.202;0.278;2023-08-07T06:51:27;101717.74;;;23.40;44.11
77975;BME280;67164;51.202;0.278;2023-08-07T06:53:53;101718.89;;;23.38;44.22
77975;BME280;67164;51.202;0.278;2023-08-07T06:56:18;101720.07;;;23.41;44.15
77975;BME280;67164;51.202;0.278;2023-08-07T06:58:44;101720.75;;;23.35;44.20
77975;BME280;67164;51.202;0.278;2023-08-07T07:01:10;101725.60;;;23.40;44.28
77975;BME280;67164;51.202;0.278;2023-08-07T07:03:36;101723.17;;;23.46;44.21
77975;BME280;67164;51.202;0.278;2023-08-07T07:06:02;101727.46;;;23.47;44.21
77975;BME280;67164;51.202;0.278;2023-08-07T07:08:27;101730.32;;;23.43;44.21
77975;BME280;67164;51.202;0.278;2023-08-07T07:10:54;101722.08;;;23.47;44.30
77975;BME280;67164;51.202;0.278;2023-08-07T07:13:19;101721.25;;;23.44;44.32
77975;BME280;67164;51.202;0.278;2023-08-07T07:15:45;101717.11;;;23.05;44.30
77975;BME280;67164;51.202;0.278;2023-08-07T07:18:11;101716.67;;;23.12;44.21
77975;BME280;67164;51.202;0.278;2023-08-07T07:20:36;101723.57;;;23.45;44.16
77975;BME280;67164;51.202;0.278;2023-08-07T07:23:02;101722.20;;;23.51;44.13
77975;BME280;67164;51.202;0.278;2023-08-07T07:25:28;101723.95;;;23.81;44.09
77975;BME280;67164;51.202;0.278;2023-08-07T07:27:54;101720.90;;;23.60;44.08
77975;BME280;67164;51.202;0.278;2023-08-07T07:30:20;101721.58;;;23.44;44.01
77975;BME280;67164;51.202;0.278;2023-08-07T07:32:46;101720.42;;;23.84;44.30
77975;BME280;67164;51.202;0.278;2023-08-07T07:35:11;101723.86;;;23.69;44.23
77975;BME280;67164;51.202;0.278;2023-08-07T07:37:37;101723.95;;;23.53;44.15
77975;BME280;67164;51.202;0.278;2023-08-07T07:40:03;101722.65;;;23.40;44.46
77975;BME280;67164;51.202;0.278;2023-08-07T07:42:28;101722.30;;;23.98;44.33
77975;BME280;67164;51.202;0.278;2023-08-07T07:44:54;101716.68;;;23.43;44.54
77975;BME280;67164;51.202;0.278;2023-08-07T07:47:20;101714.60;;;23.76;44.39
77975;BME280;67164;51.202;0.278;2023-08-07T07:49:47;101710.48;;;23.96;44.45
77975;BME280;67164;51.202;0.278;2023-08-07T07:52:12;101709.73;;;23.79;44.37
77975;BME280;67164;51.202;0.278;2023-08-07T07:54:37;101712.67;;;24.14;44.27
77975;BME280;67164;51.202;0.278;2023-08-07T07:57:04;101710.82;;;23.65;44.30
77975;BME280;67164;51.202;0.278;2023-08-07T07:59:29;101705.38;;;23.87;44.36
77975;BME280;67164;51.202;0.278;2023-08-07T08:01:55;101706.77;;;24.09;44.43
77975;BME280;67164;51.202;0.278;2023-08-07T08:04:21;101700.88;;;23.52;44.61
77975;BME280;67164;51.202;0.278;2023-08-07T08:06:46;101699.43;;;23.81;44.64
77975;BME280;67164;51.202;0.278;2023-08-07T08:09:12;101700.19;;;23.84;45.00
77975;BME280;67164;51.202;0.278;2023-08-07T08:11:38;101698.96;;;23.74;44.85
77975;BME280;67164;51.202;0.278;2023-08-07T08:14:04;101695.21;;;23.70;44.59
77975;BME280;67164;51.202;0.278;2023-08-07T08:16:29;101696.16;;;23.69;44.63
77975;BME280;67164;51.202;0.278;2023-08-07T08:18:55;101697.66;;;23.96;44.62
77975;BME280;67164;51.202;0.278;2023-08-07T08:21:21;101702.87;;;23.30;45.29
77975;BME280;67164;51.202;0.278;2023-08-07T08:23:47;101704.01;;;23.47;45.69
77975;BME280;67164;51.202;0.278;2023-08-07T08:26:13;101706.76;;;23.66;45.08
77975;BME280;67164;51.202;0.278;2023-08-07T08:28:38;101700.66;;;23.72;44.90
77975;BME280;67164;51.202;0.278;2023-08-07T08:31:05;101699.57;;;23.77;44.81
77975;BME280;67164;51.202;0.278;2023-08-07T08:33:30;101708.27;;;23.75;45.22
77975;BME280;67164;51.202;0.278;2023-08-07T08:35:56;101711.12;;;23.82;45.26
77975;BME280;67164;51.202;0.278;2023-08-07T08:38:22;101709.04;;;23.54;45.39
77975;BME280;67164;51.202;0.278;2023-08-07T08:40:50;101708.09;;;23.80;45.00
77975;BME280;67164;51.202;0.278;2023-08-07T08:43:13;101705.59;;;23.73;45.28
77975;BME280;67164;51.202;0.278;2023-08-07T08:45:40;101704.81;;;23.79;45.33
77975;BME280;67164;51.202;0.278;2023-08-07T08:48:08;101705.36;;;24.05;45.48
77975;BME280;67164;51.202;0.278;2023-08-07T08:50:32;101709.38;;;23.35;46.39
77975;BME280;67164;51.202;0.278;2023-08-07T08:52:56;101715.92;;;23.55;46.31
77975;BME280;67164;51.202;0.278;2023-08-07T08:55:23;101718.29;;;24.18;46.17
77975;BME280;67164;51.202;0.278;2023-08-07T08:57:48;101720.47;;;23.72;46.18
77975;BME280;67164;51.202;0.278;2023-08-07T09:00:14;101718.97;;;23.58;46.31
77975;BME280;67164;51.202;0.278;2023-08-07T09:02:39;101713.61;;;23.88;45.83
77975;BME280;67164;51.202;0.278;2023-08-07T09:05:05;101718.30;;;23.42;46.57
77975;BME280;67164;51.202;0.278;2023-08-07T09:07:31;101719.21;;;23.39;47.38
77975;BME280;67164;51.202;0.278;2023-08-07T09:09:57;101725.34;;;23.73;46.77
77975;BME280;67164;51.202;0.278;2023-08-07T09:12:26;101722.35;;;23.72;46.24
77975;BME280;67164;51.202;0.278;2023-08-07T09:14:52;101718.29;;;23.63;46.04
77975;BME280;67164;51.202;0.278;2023-08-07T09:17:15;101708.56;;;23.62;46.17
77975;BME280;67164;51.202;0.278;2023-08-07T09:19:40;101709.52;;;23.16;47.05
77975;BME280;67164;51.202;0.278;2023-08-07T09:22:06;101711.94;;;23.43;46.75
77975;BME280;67164;51.202;0.278;2023-08-07T09:24:33;101710.33;;;23.47;46.64
77975;BME280;67164;51.202;0.278;2023-08-07T09:26:57;101712.07;;;23.44;46.71
77975;BME280;67164;51.202;0.278;2023-08-07T09:29:23;101714.49;;;23.58;46.48
77975;BME280;67164;51.202;0.278;2023-08-07T09:31:49;101712.62;;;23.39;46.70
77975;BME280;67164;51.202;0.278;2023-08-07T09:34:14;101714.42;;;23.54;46.48
77975;BME280;67164;51.202;0.278;2023-08-07T09:36:41;101714.33;;;23.65;46.31
77975;BME280;67164;51.202;0.278;2023-08-07T09:39:08;101712.92;;;23.69;46.29
77975;BME280;67164;51.202;0.278;2023-08-07T09:41:37;101712.74;;;23.58;46.47
77975;BME280;67164;51.202;0.278;2023-08-07T09:43:58;101711.25;;;23.56;46.52
77975;BME280;67164;51.202;0.278;2023-08-07T09:46:30;101716.67;;;23.49;46.62
77975;BME280;67164;51.202;0.278;2023-08-07T09:48:49;101720.20;;;23.57;46.52
77975;BME280;67164;51.202;0.278;2023-08-07T09:51:15;101715.92;;;23.42;46.95
77975;BME280;67164;51.202;0.278;2023-08-07T09:53:40;101719.38;;;23.42;46.77
77975;BME280;67164;51.202;0.278;2023-08-07T09:56:07;101720.62;;;23.49;46.66
77975;BME280;67164;51.202;0.278;2023-08-07T09:58:34;101718.99;;;23.66;46.45
77975;BME280;67164;51.202;0.278;2023-08-07T10:01:00;101719.77;;;23.67;46.39
77975;BME280;67164;51.202;0.278;2023-08-07T10:03:24;101714.71;;;23.63;46.46
77975;BME280;67164;51.202;0.278;2023-08-07T10:05:55;101720.82;;;23.74;46.27
77975;BME280;67164;51.202;0.278;2023-08-07T10:08:21;101712.90;;;23.33;47.20
77975;BME280;67164;51.202;0.278;2023-08-07T10:10:46;101716.20;;;23.83;46.33
77975;BME280;67164;51.202;0.278;2023-08-07T10:13:08;101721.17;;;23.71;46.33
77975;BME280;67164;51.202;0.278;2023-08-07T10:15:33;101707.79;;;23.86;46.00
77975;BME280;67164;51.202;0.278;2023-08-07T10:17:58;101723.45;;;23.85;45.89
77975;BME280;67164;51.202;0.278;2023-08-07T10:20:26;101719.73;;;23.93;45.73
77975;BME280;67164;51.202;0.278;2023-08-07T10:22:50;101718.11;;;23.83;45.87
77975;BME280;67164;51.202;0.278;2023-08-07T10:25:16;101717.58;;;24.05;45.55
77975;BME280;67164;51.202;0.278;2023-08-07T10:27:43;101711.74;;;24.05;45.52
77975;BME280;67164;51.202;0.278;2023-08-07T10:30:10;101702.27;;;24.16;45.19
77975;BME280;67164;51.202;0.278;2023-08-07T10:32:33;101698.21;;;24.44;45.09
77975;BME280;67164;51.202;0.278;2023-08-07T10:34:58;101699.78;;;24.18;45.00
77975;BME280;67164;51.202;0.278;2023-08-07T10:37:38;101703.01;;;24.17;44.94
77975;BME280;67164;51.202;0.278;2023-08-07T10:40:01;101693.61;;;24.43;44.81
77975;BME280;67164;51.202;0.278;2023-08-07T10:42:16;101695.14;;;24.19;44.76
77975;BME280;67164;51.202;0.278;2023-08-07T10:44:48;101690.36;;;24.17;44.76
77975;BME280;67164;51.202;0.278;2023-08-07T10:47:07;101693.97;;;24.18;44.75
77975;BME280;67164;51.202;0.278;2023-08-07T10:49:36;101698.95;;;24.12;44.80
77975;BME280;67164;51.202;0.278;2023-08-07T10:52:01;101690.72;;;24.38;44.76
77975;BME280;67164;51.202;0.278;2023-08-07T10:54:25;101691.92;;;24.12;44.76
77975;BME280;67164;51.202;0.278;2023-08-07T10:56:53;101691.05;;;24.12;44.70
77975;BME280;67164;51.202;0.278;2023-08-07T10:59:16;101688.35;;;24.10;44.71
77975;BME280;67164;51.202;0.278;2023-08-07T11:01:43;101686.28;;;24.08;44.73
77975;BME280;67164;51.202;0.278;2023-08-07T11:04:10;101681.70;;;24.10;44.70
77975;BME280;67164;51.202;0.278;2023-08-07T11:06:35;101679.99;;;24.09;44.66
77975;BME280;67164;51.202;0.278;2023-08-07T11:09:00;101676.61;;;24.03;44.76
77975;BME280;67164;51.202;0.278;2023-08-07T11:11:26;101680.80;;;24.11;44.65
77975;BME280;67164;51.202;0.278;2023-08-07T11:13:51;101680.46;;;24.07;44.70
77975;BME280;67164;51.202;0.278;2023-08-07T11:16:17;101667.36;;;24.09;44.63
77975;BME280;67164;51.202;0.278;2023-08-07T11:18:43;101677.56;;;24.02;44.73
77975;BME280;67164;51.202;0.278;2023-08-07T11:21:09;101669.93;;;24.49;44.75
77975;BME280;67164;51.202;0.278;2023-08-07T11:23:34;101666.01;;;24.02;44.67
77975;BME280;67164;51.202;0.278;2023-08-07T11:26:00;101670.33;;;24.02;44.69
77975;BME280;67164;51.202;0.278;2023-08-07T11:28:26;101669.74;;;24.00;44.69
77975;BME280;67164;51.202;0.278;2023-08-07T11:30:52;101672.58;;;24.00;44.70
77975;BME280;67164;51.202;0.278;2023-08-07T11:33:18;101672.98;;;24.00;44.66
77975;BME280;67164;51.202;0.278;2023-08-07T11:35:43;101675.94;;;23.98;44.68
77975;BME280;67164;51.202;0.278;2023-08-07T11:38:09;101670.54;;;24.00;44.62
77975;BME280;67164;51.202;0.278;2023-08-07T11:40:35;101668.50;;;23.96;44.68
77975;BME280;67164;51.202;0.278;2023-08-07T11:43:01;101673.84;;;23.96;44.68
77975;BME280;67164;51.202;0.278;2023-08-07T11:45:26;101662.62;;;23.97;44.66
77975;BME280;67164;51.202;0.278;2023-08-07T11:47:52;101660.85;;;23.91;44.70
77975;BME280;67164;51.202;0.278;2023-08-07T11:50:18;101662.26;;;23.93;44.69
77975;BME280;67164;51.202;0.278;2023-08-07T11:52:44;101658.85;;;23.86;44.76
77975;BME280;67164;51.202;0.278;2023-08-07T11:55:09;101653.94;;;24.36;44.70
77975;BME280;67164;51.202;0.278;2023-08-07T11:57:38;101650.18;;;23.92;44.66
77975;BME280;67164;51.202;0.278;2023-08-07T12:00:01;101648.71;;;23.92;44.65
77975;BME280;67164;51.202;0.278;2023-08-07T12:02:27;101646.60;;;24.37;44.70
77975;BME280;67164;51.202;0.278;2023-08-07T12:04:58;101642.31;;;24.10;44.73
77975;BME280;67164;51.202;0.278;2023-08-07T12:07:18;101636.41;;;23.89;44.67
77975;BME280;67164;51.202;0.278;2023-08-07T12:09:44;101631.40;;;23.88;44.68
77975;BME280;67164;51.202;0.278;2023-08-07T12:12:11;101644.01;;;24.18;44.60
77975;BME280;67164;51.202;0.278;2023-08-07T12:14:36;101637.06;;;23.90;44.65
77975;BME280;67164;51.202;0.278;2023-08-07T12:17:02;101633.57;;;23.90;44.60
77975;BME280;67164;51.202;0.278;2023-08-07T12:19:36;101630.66;;;24.14;44.60
77975;BME280;67164;51.202;0.278;2023-08-07T12:21:53;101626.56;;;24.13;44.60
77975;BME280;67164;51.202;0.278;2023-08-07T12:24:19;101619.12;;;23.92;44.61
77975;BME280;67164;51.202;0.278;2023-08-07T12:26:44;101622.99;;;23.83;44.76
77975;BME280;67164;51.202;0.278;2023-08-07T12:29:10;101626.20;;;24.04;44.80
77975;BME280;67164;51.202;0.278;2023-08-07T12:31:36;101624.50;;;23.90;44.67
77975;BME280;67164;51.202;0.278;2023-08-07T12:34:02;101617.96;;;23.78;44.82
77975;BME280;67164;51.202;0.278;2023-08-07T12:36:28;101616.62;;;24.07;44.85
77975;BME280;67164;51.202;0.278;2023-08-07T12:38:53;101623.62;;;24.03;44.93
77975;BME280;67164;51.202;0.278;2023-08-07T12:41:19;101623.17;;;23.76;44.98